Aegean Pride — ELXK8 — position and weather

sailwx.info

Track history (hours):
 
Tides and Currents Weather Stations Pressure Air Temp Water Temp Dewpoint Dewpoint Depression Visibility Wind Speed Wind Dir Waves Ship Positions

Aegean Pride

Last reported at 2014-Jul-23 21:07 UTC. Time now 2014-Jul-29 10:42 UTC.
Position N 33°31' E 027°10'.

; draft 14.4 m.

Type: Ship. MMSI: 636011186.

Date/timePositionNaut miles runAvg speedWind from/ knotsBaromVisibWave heightAir tempDewpointWater temp
2014-Jul-23 21:07N 33°31' E 027°10'1010.9
2014-Jul-23 20:11N 33°27' E 027°21'710.9
2014-Jul-23 19:30N 33°24' E 027°29'1110.8
2014-Jul-23 18:30N 33°19' E 027°41'1110.7
2014-Jul-23 17:30N 33°15' E 027°53'1010.6
2014-Jul-23 16:33N 33°11' E 028°04'1110.6
2014-Jul-23 15:33N 33°07' E 028°15'1110.5
2014-Jul-23 14:32N 33°03' E 028°27'1310.8
2014-Jul-23 13:21N 32°58' E 028°41'1110.8
2014-Jul-23 12:20N 32°53' E 028°53'810.7
2014-Jul-23 11:33N 32°50' E 029°02'1110.4
2014-Jul-23 10:32N 32°46' E 029°14'2210.8
2014-Jul-23 08:33N 32°37' E 029°37'1110.8
2014-Jul-23 07:33N 32°33' E 029°49'1110.9
2014-Jul-23 06:33N 32°28' E 030°01'1110.8
2014-Jul-23 05:34N 32°24' E 030°12'1110.7
2014-Jul-23 04:33N 32°20' E 030°24'1010.5
2014-Jul-23 03:34N 32°16' E 030°35'1510.4
2014-Jul-23 02:08N 32°10' E 030°51'610.4
2014-Jul-23 01:33N 32°07' E 030°58'1010.3
2014-Jul-23 00:34N 32°03' E 031°09'1210.4
2014-Jul-22 23:21N 31°58' E 031°23'810.3
2014-Jul-22 22:34N 31°55' E 031°31'1010.4
2014-Jul-22 21:33N 31°51' E 031°43'1010.2
2014-Jul-22 20:33N 31°47' E 031°54'10 9.8
2014-Jul-22 19:34N 31°42' E 032°04'10 9.9
2014-Jul-22 18:33N 31°34' E 032°11'10 9.8
2014-Jul-22 17:34N 31°29' E 032°21'9 8.5
2014-Jul-22 16:34N 31°20' E 032°23'9 9.3
2014-Jul-22 15:34N 31°11' E 032°20'  
Track history (hours):
 
Tides and Currents Weather Stations Pressure Air Temp Water Temp Dewpoint Dewpoint Depression Visibility Wind Speed Wind Dir Waves Ship Positions

Aegean Pride

Last reported at 2014-Jul-23 21:07 UTC. Time now 2014-Jul-29 10:42 UTC.
Position N 33°31' E 027°10'.

; draft 14.4 m.

Type: Ship. MMSI: 636011186.

Date/timePositionNaut miles runAvg speedWind from/ knotsBaromVisibWave heightAir tempDewpointWater temp
2014-Jul-23 21:07N 33°31' E 027°10'1010.9
2014-Jul-23 20:11N 33°27' E 027°21'710.9
2014-Jul-23 19:30N 33°24' E 027°29'1110.8
2014-Jul-23 18:30N 33°19' E 027°41'1110.7
2014-Jul-23 17:30N 33°15' E 027°53'1010.6
2014-Jul-23 16:33N 33°11' E 028°04'1110.6
2014-Jul-23 15:33N 33°07' E 028°15'1110.5
2014-Jul-23 14:32N 33°03' E 028°27'1310.8
2014-Jul-23 13:21N 32°58' E 028°41'1110.8
2014-Jul-23 12:20N 32°53' E 028°53'810.7
2014-Jul-23 11:33N 32°50' E 029°02'1110.4
2014-Jul-23 10:32N 32°46' E 029°14'2210.8
2014-Jul-23 08:33N 32°37' E 029°37'1110.8
2014-Jul-23 07:33N 32°33' E 029°49'1110.9
2014-Jul-23 06:33N 32°28' E 030°01'1110.8
2014-Jul-23 05:34N 32°24' E 030°12'1110.7
2014-Jul-23 04:33N 32°20' E 030°24'1010.5
2014-Jul-23 03:34N 32°16' E 030°35'1510.4
2014-Jul-23 02:08N 32°10' E 030°51'610.4
2014-Jul-23 01:33N 32°07' E 030°58'1010.3
2014-Jul-23 00:34N 32°03' E 031°09'1210.4
2014-Jul-22 23:21N 31°58' E 031°23'810.3
2014-Jul-22 22:34N 31°55' E 031°31'1010.4
2014-Jul-22 21:33N 31°51' E 031°43'1010.2
2014-Jul-22 20:33N 31°47' E 031°54'10 9.8
2014-Jul-22 19:34N 31°42' E 032°04'10 9.9
2014-Jul-22 18:33N 31°34' E 032°11'10 9.8
2014-Jul-22 17:34N 31°29' E 032°21'9 8.5
2014-Jul-22 16:34N 31°20' E 032°23'9 9.3
2014-Jul-22 15:34N 31°11' E 032°20'  

Dump ship's entire track history